sensor_id;sensor_type;location;lat;lon;timestamp;P1;durP1;ratioP1;P2;durP2;ratioP2
16308;SDS011;8263;48.880;9.276;2022-11-20T00:00:15;117.57;;;109.22;;
16308;SDS011;8263;48.880;9.276;2022-11-20T00:02:42;117.47;;;109.57;;
16308;SDS011;8263;48.880;9.276;2022-11-20T00:05:09;115.97;;;108.20;;
16308;SDS011;8263;48.880;9.276;2022-11-20T00:07:37;117.40;;;109.55;;
16308;SDS011;8263;48.880;9.276;2022-11-20T00:10:04;118.70;;;110.70;;
16308;SDS011;8263;48.880;9.276;2022-11-20T00:12:31;116.90;;;109.10;;
16308;SDS011;8263;48.880;9.276;2022-11-20T00:14:57;114.65;;;106.95;;
16308;SDS011;8263;48.880;9.276;2022-11-20T00:17:24;116.60;;;108.80;;
16308;SDS011;8263;48.880;9.276;2022-11-20T00:19:50;117.07;;;109.22;;
16308;SDS011;8263;48.880;9.276;2022-11-20T00:22:17;118.97;;;110.95;;
16308;SDS011;8263;48.880;9.276;2022-11-20T00:24:47;119.25;;;110.78;;
16308;SDS011;8263;48.880;9.276;2022-11-20T00:27:13;117.35;;;109.45;;
16308;SDS011;8263;48.880;9.276;2022-11-20T00:29:40;117.13;;;109.18;;
16308;SDS011;8263;48.880;9.276;2022-11-20T00:32:07;118.78;;;110.80;;
16308;SDS011;8263;48.880;9.276;2022-11-20T00:34:34;116.63;;;108.80;;
16308;SDS011;8263;48.880;9.276;2022-11-20T00:37:00;117.63;;;109.72;;
16308;SDS011;8263;48.880;9.276;2022-11-20T00:39:27;116.30;;;108.50;;
16308;SDS011;8263;48.880;9.276;2022-11-20T00:41:55;119.43;;;111.25;;
16308;SDS011;8263;48.880;9.276;2022-11-20T00:44:21;114.72;;;107.00;;
16308;SDS011;8263;48.880;9.276;2022-11-20T00:46:48;115.97;;;108.15;;
16308;SDS011;8263;48.880;9.276;2022-11-20T00:49:15;116.63;;;108.55;;
16308;SDS011;8263;48.880;9.276;2022-11-20T00:51:41;119.53;;;111.53;;
16308;SDS011;8263;48.880;9.276;2022-11-20T00:54:08;117.88;;;109.90;;
16308;SDS011;8263;48.880;9.276;2022-11-20T00:56:35;116.50;;;108.65;;
16308;SDS011;8263;48.880;9.276;2022-11-20T00:59:03;116.80;;;108.80;;
16308;SDS011;8263;48.880;9.276;2022-11-20T01:01:30;117.55;;;109.55;;
16308;SDS011;8263;48.880;9.276;2022-11-20T01:03:57;117.03;;;109.03;;
16308;SDS011;8263;48.880;9.276;2022-11-20T01:06:25;119.43;;;111.43;;
16308;SDS011;8263;48.880;9.276;2022-11-20T01:08:52;119.43;;;111.32;;
16308;SDS011;8263;48.880;9.276;2022-11-20T01:11:20;118.38;;;110.40;;
16308;SDS011;8263;48.880;9.276;2022-11-20T01:13:48;114.38;;;106.68;;
16308;SDS011;8263;48.880;9.276;2022-11-20T01:16:17;118.53;;;110.50;;
16308;SDS011;8263;48.880;9.276;2022-11-20T01:18:46;115.85;;;107.93;;
16308;SDS011;8263;48.880;9.276;2022-11-20T01:21:13;116.05;;;108.18;;
16308;SDS011;8263;48.880;9.276;2022-11-20T01:23:41;118.18;;;110.25;;
16308;SDS011;8263;48.880;9.276;2022-11-20T01:26:08;118.63;;;110.57;;
16308;SDS011;8263;48.880;9.276;2022-11-20T01:28:35;119.35;;;111.28;;
16308;SDS011;8263;48.880;9.276;2022-11-20T01:31:02;117.53;;;109.60;;
16308;SDS011;8263;48.880;9.276;2022-11-20T01:33:37;118.55;;;110.55;;
16308;SDS011;8263;48.880;9.276;2022-11-20T01:36:04;118.05;;;110.05;;
16308;SDS011;8263;48.880;9.276;2022-11-20T01:38:32;118.55;;;110.55;;
16308;SDS011;8263;48.880;9.276;2022-11-20T01:40:59;118.22;;;110.22;;
16308;SDS011;8263;48.880;9.276;2022-11-20T01:43:25;118.53;;;110.63;;
16308;SDS011;8263;48.880;9.276;2022-11-20T01:46:12;118.13;;;110.05;;
16308;SDS011;8263;48.880;9.276;2022-11-20T01:48:47;118.50;;;110.55;;
16308;SDS011;8263;48.880;9.276;2022-11-20T01:51:18;118.43;;;110.43;;
16308;SDS011;8263;48.880;9.276;2022-11-20T01:53:45;117.03;;;109.22;;
16308;SDS011;8263;48.880;9.276;2022-11-20T01:56:12;116.63;;;108.82;;
16308;SDS011;8263;48.880;9.276;2022-11-20T01:58:42;116.32;;;108.53;;
16308;SDS011;8263;48.880;9.276;2022-11-20T02:01:10;119.15;;;111.10;;
16308;SDS011;8263;48.880;9.276;2022-11-20T02:03:37;117.53;;;109.47;;
16308;SDS011;8263;48.880;9.276;2022-11-20T02:06:07;117.65;;;109.65;;
16308;SDS011;8263;48.880;9.276;2022-11-20T02:08:36;117.78;;;109.80;;
16308;SDS011;8263;48.880;9.276;2022-11-20T02:11:04;116.25;;;108.45;;
16308;SDS011;8263;48.880;9.276;2022-11-20T02:13:31;118.70;;;110.70;;
16308;SDS011;8263;48.880;9.276;2022-11-20T02:16:23;118.60;;;110.60;;
16308;SDS011;8263;48.880;9.276;2022-11-20T02:18:50;120.25;;;111.90;;
16308;SDS011;8263;48.880;9.276;2022-11-20T02:21:33;119.70;;;111.60;;
16308;SDS011;8263;48.880;9.276;2022-11-20T02:24:07;119.45;;;111.10;;
16308;SDS011;8263;48.880;9.276;2022-11-20T02:26:35;119.03;;;110.88;;
16308;SDS011;8263;48.880;9.276;2022-11-20T02:29:04;118.88;;;110.78;;
16308;SDS011;8263;48.880;9.276;2022-11-20T02:31:40;116.82;;;109.00;;
16308;SDS011;8263;48.880;9.276;2022-11-20T02:34:07;118.13;;;110.15;;
16308;SDS011;8263;48.880;9.276;2022-11-20T02:36:34;117.57;;;109.60;;
16308;SDS011;8263;48.880;9.276;2022-11-20T02:39:02;115.68;;;107.88;;
16308;SDS011;8263;48.880;9.276;2022-11-20T02:41:36;116.78;;;108.95;;
16308;SDS011;8263;48.880;9.276;2022-11-20T02:44:03;119.43;;;111.35;;
16308;SDS011;8263;48.880;9.276;2022-11-20T02:46:30;116.78;;;108.78;;
16308;SDS011;8263;48.880;9.276;2022-11-20T02:48:57;115.70;;;107.95;;
16308;SDS011;8263;48.880;9.276;2022-11-20T02:51:24;118.22;;;110.30;;
16308;SDS011;8263;48.880;9.276;2022-11-20T02:53:50;116.82;;;109.03;;
16308;SDS011;8263;48.880;9.276;2022-11-20T02:56:17;118.70;;;110.60;;
16308;SDS011;8263;48.880;9.276;2022-11-20T02:58:45;120.75;;;112.63;;
16308;SDS011;8263;48.880;9.276;2022-11-20T03:01:12;120.22;;;112.13;;
16308;SDS011;8263;48.880;9.276;2022-11-20T03:03:39;119.03;;;110.93;;
16308;SDS011;8263;48.880;9.276;2022-11-20T03:06:06;118.05;;;110.15;;
16308;SDS011;8263;48.880;9.276;2022-11-20T03:08:32;119.47;;;111.28;;
16308;SDS011;8263;48.880;9.276;2022-11-20T03:11:02;117.53;;;109.55;;
16308;SDS011;8263;48.880;9.276;2022-11-20T03:13:29;118.20;;;110.20;;
16308;SDS011;8263;48.880;9.276;2022-11-20T03:15:57;117.63;;;109.68;;
16308;SDS011;8263;48.880;9.276;2022-11-20T03:18:23;119.03;;;110.90;;
16308;SDS011;8263;48.880;9.276;2022-11-20T03:20:56;118.22;;;110.28;;
16308;SDS011;8263;48.880;9.276;2022-11-20T03:23:30;119.63;;;111.63;;
16308;SDS011;8263;48.880;9.276;2022-11-20T03:26:14;119.07;;;110.97;;
16308;SDS011;8263;48.880;9.276;2022-11-20T03:28:42;118.28;;;110.22;;
16308;SDS011;8263;48.880;9.276;2022-11-20T03:31:14;119.70;;;111.60;;
16308;SDS011;8263;48.880;9.276;2022-11-20T03:33:41;119.85;;;111.55;;
16308;SDS011;8263;48.880;9.276;2022-11-20T03:36:08;117.95;;;110.07;;
16308;SDS011;8263;48.880;9.276;2022-11-20T03:38:36;119.45;;;111.45;;
16308;SDS011;8263;48.880;9.276;2022-11-20T03:41:04;118.88;;;110.90;;
16308;SDS011;8263;48.880;9.276;2022-11-20T03:43:31;118.20;;;110.30;;
16308;SDS011;8263;48.880;9.276;2022-11-20T03:45:58;119.18;;;111.15;;
16308;SDS011;8263;48.880;9.276;2022-11-20T03:48:26;117.65;;;109.75;;
16308;SDS011;8263;48.880;9.276;2022-11-20T03:50:54;116.97;;;109.18;;
16308;SDS011;8263;48.880;9.276;2022-11-20T03:53:32;119.18;;;111.13;;
16308;SDS011;8263;48.880;9.276;2022-11-20T03:55:59;118.00;;;110.10;;
16308;SDS011;8263;48.880;9.276;2022-11-20T03:58:25;114.47;;;106.88;;
16308;SDS011;8263;48.880;9.276;2022-11-20T04:00:52;118.88;;;110.88;;
16308;SDS011;8263;48.880;9.276;2022-11-20T04:03:19;118.57;;;110.60;;
16308;SDS011;8263;48.880;9.276;2022-11-20T04:05:49;118.45;;;110.45;;
16308;SDS011;8263;48.880;9.276;2022-11-20T04:08:16;119.75;;;111.55;;
16308;SDS011;8263;48.880;9.276;2022-11-20T04:10:43;118.60;;;110.57;;
16308;SDS011;8263;48.880;9.276;2022-11-20T04:13:09;117.60;;;109.65;;
16308;SDS011;8263;48.880;9.276;2022-11-20T04:15:36;117.93;;;109.95;;
16308;SDS011;8263;48.880;9.276;2022-11-20T04:18:03;115.38;;;107.63;;
16308;SDS011;8263;48.880;9.276;2022-11-20T04:20:29;118.07;;;110.18;;
16308;SDS011;8263;48.880;9.276;2022-11-20T04:22:58;118.22;;;110.32;;
16308;SDS011;8263;48.880;9.276;2022-11-20T04:25:24;116.97;;;109.13;;
16308;SDS011;8263;48.880;9.276;2022-11-20T04:27:51;117.82;;;109.93;;
16308;SDS011;8263;48.880;9.276;2022-11-20T04:30:17;117.85;;;109.95;;
16308;SDS011;8263;48.880;9.276;2022-11-20T04:32:44;118.30;;;110.40;;
16308;SDS011;8263;48.880;9.276;2022-11-20T04:35:11;119.35;;;111.28;;
16308;SDS011;8263;48.880;9.276;2022-11-20T04:37:37;118.35;;;110.45;;
16308;SDS011;8263;48.880;9.276;2022-11-20T04:40:07;115.68;;;107.78;;
16308;SDS011;8263;48.880;9.276;2022-11-20T04:42:33;118.10;;;110.20;;
16308;SDS011;8263;48.880;9.276;2022-11-20T04:45:00;118.35;;;110.45;;
16308;SDS011;8263;48.880;9.276;2022-11-20T04:47:27;117.10;;;109.25;;
16308;SDS011;8263;48.880;9.276;2022-11-20T04:49:53;115.70;;;107.97;;
16308;SDS011;8263;48.880;9.276;2022-11-20T04:52:20;118.82;;;110.82;;
16308;SDS011;8263;48.880;9.276;2022-11-20T04:54:47;118.00;;;110.00;;
16308;SDS011;8263;48.880;9.276;2022-11-20T04:57:15;117.68;;;109.78;;
16308;SDS011;8263;48.880;9.276;2022-11-20T04:59:42;121.22;;;112.10;;
16308;SDS011;8263;48.880;9.276;2022-11-20T05:02:09;118.03;;;110.13;;
16308;SDS011;8263;48.880;9.276;2022-11-20T05:04:36;115.80;;;108.07;;
16308;SDS011;8263;48.880;9.276;2022-11-20T05:07:03;119.95;;;111.85;;
16308;SDS011;8263;48.880;9.276;2022-11-20T05:09:29;117.97;;;110.10;;
16308;SDS011;8263;48.880;9.276;2022-11-20T05:11:56;116.30;;;108.53;;
16308;SDS011;8263;48.880;9.276;2022-11-20T05:14:24;116.93;;;109.13;;
16308;SDS011;8263;48.880;9.276;2022-11-20T05:16:51;118.18;;;110.28;;
16308;SDS011;8263;48.880;9.276;2022-11-20T05:19:17;120.95;;;112.63;;
16308;SDS011;8263;48.880;9.276;2022-11-20T05:21:44;117.50;;;109.65;;
16308;SDS011;8263;48.880;9.276;2022-11-20T05:24:11;118.65;;;110.72;;
16308;SDS011;8263;48.880;9.276;2022-11-20T05:26:37;117.70;;;109.80;;
16308;SDS011;8263;48.880;9.276;2022-11-20T05:29:04;119.40;;;111.32;;
16308;SDS011;8263;48.880;9.276;2022-11-20T05:31:32;118.72;;;110.80;;
16308;SDS011;8263;48.880;9.276;2022-11-20T05:33:58;117.88;;;109.97;;
16308;SDS011;8263;48.880;9.276;2022-11-20T05:36:25;118.07;;;110.18;;
16308;SDS011;8263;48.880;9.276;2022-11-20T05:38:51;116.45;;;108.65;;
16308;SDS011;8263;48.880;9.276;2022-11-20T05:41:18;118.43;;;110.53;;
16308;SDS011;8263;48.880;9.276;2022-11-20T05:43:45;119.35;;;111.28;;
16308;SDS011;8263;48.880;9.276;2022-11-20T05:46:13;116.22;;;108.43;;
16308;SDS011;8263;48.880;9.276;2022-11-20T05:48:42;117.15;;;109.32;;
16308;SDS011;8263;48.880;9.276;2022-11-20T05:51:10;117.55;;;109.63;;
16308;SDS011;8263;48.880;9.276;2022-11-20T05:53:37;116.88;;;109.03;;
16308;SDS011;8263;48.880;9.276;2022-11-20T05:56:04;116.32;;;108.53;;
16308;SDS011;8263;48.880;9.276;2022-11-20T05:58:31;119.20;;;111.20;;
16308;SDS011;8263;48.880;9.276;2022-11-20T06:01:03;118.32;;;110.43;;
16308;SDS011;8263;48.880;9.276;2022-11-20T06:03:29;117.60;;;109.75;;
16308;SDS011;8263;48.880;9.276;2022-11-20T06:05:59;118.72;;;110.72;;
16308;SDS011;8263;48.880;9.276;2022-11-20T06:08:26;120.38;;;112.28;;
16308;SDS011;8263;48.880;9.276;2022-11-20T06:10:53;118.72;;;110.80;;
16308;SDS011;8263;48.880;9.276;2022-11-20T06:13:19;117.90;;;110.00;;
16308;SDS011;8263;48.880;9.276;2022-11-20T06:15:47;119.05;;;111.05;;
16308;SDS011;8263;48.880;9.276;2022-11-20T06:18:15;118.38;;;110.28;;
16308;SDS011;8263;48.880;9.276;2022-11-20T06:20:42;121.55;;;113.25;;
16308;SDS011;8263;48.880;9.276;2022-11-20T06:23:10;117.85;;;109.95;;
16308;SDS011;8263;48.880;9.276;2022-11-20T06:25:37;116.93;;;109.13;;
16308;SDS011;8263;48.880;9.276;2022-11-20T06:28:04;117.90;;;110.00;;
16308;SDS011;8263;48.880;9.276;2022-11-20T06:30:31;118.80;;;110.80;;
16308;SDS011;8263;48.880;9.276;2022-11-20T06:32:58;118.18;;;110.07;;
16308;SDS011;8263;48.880;9.276;2022-11-20T06:35:24;118.80;;;110.80;;
16308;SDS011;8263;48.880;9.276;2022-11-20T06:37:51;118.15;;;110.25;;
16308;SDS011;8263;48.880;9.276;2022-11-20T06:40:19;119.28;;;111.28;;
16308;SDS011;8263;48.880;9.276;2022-11-20T06:42:46;117.40;;;109.32;;
16308;SDS011;8263;48.880;9.276;2022-11-20T06:45:12;118.28;;;110.28;;
16308;SDS011;8263;48.880;9.276;2022-11-20T06:47:39;118.22;;;110.22;;
16308;SDS011;8263;48.880;9.276;2022-11-20T06:50:06;118.65;;;110.68;;
16308;SDS011;8263;48.880;9.276;2022-11-20T06:52:32;118.63;;;110.63;;
16308;SDS011;8263;48.880;9.276;2022-11-20T06:54:59;118.78;;;110.78;;
16308;SDS011;8263;48.880;9.276;2022-11-20T06:57:27;119.03;;;110.93;;
16308;SDS011;8263;48.880;9.276;2022-11-20T06:59:54;116.75;;;108.82;;
16308;SDS011;8263;48.880;9.276;2022-11-20T07:02:20;118.45;;;110.50;;
16308;SDS011;8263;48.880;9.276;2022-11-20T07:04:47;119.60;;;111.60;;
16308;SDS011;8263;48.880;9.276;2022-11-20T07:07:14;118.70;;;110.68;;
16308;SDS011;8263;48.880;9.276;2022-11-20T07:09:41;114.90;;;107.20;;
16308;SDS011;8263;48.880;9.276;2022-11-20T07:12:07;118.70;;;110.70;;
16308;SDS011;8263;48.880;9.276;2022-11-20T07:14:36;119.00;;;111.00;;
16308;SDS011;8263;48.880;9.276;2022-11-20T07:17:02;118.80;;;110.75;;
16308;SDS011;8263;48.880;9.276;2022-11-20T07:19:29;117.65;;;109.75;;
16308;SDS011;8263;48.880;9.276;2022-11-20T07:21:56;118.13;;;110.22;;
16308;SDS011;8263;48.880;9.276;2022-11-20T07:24:22;117.28;;;109.38;;
16308;SDS011;8263;48.880;9.276;2022-11-20T07:26:49;117.88;;;109.97;;
16308;SDS011;8263;48.880;9.276;2022-11-20T07:29:16;119.53;;;111.53;;
16308;SDS011;8263;48.880;9.276;2022-11-20T07:31:44;115.40;;;107.68;;
16308;SDS011;8263;48.880;9.276;2022-11-20T07:34:11;117.68;;;109.80;;
16308;SDS011;8263;48.880;9.276;2022-11-20T07:36:38;118.53;;;110.50;;
16308;SDS011;8263;48.880;9.276;2022-11-20T07:39:05;118.75;;;110.75;;
16308;SDS011;8263;48.880;9.276;2022-11-20T07:41:32;117.65;;;109.78;;
16308;SDS011;8263;48.880;9.276;2022-11-20T07:43:59;117.57;;;109.68;;
16308;SDS011;8263;48.880;9.276;2022-11-20T07:46:25;118.60;;;110.63;;
16308;SDS011;8263;48.880;9.276;2022-11-20T07:48:53;118.53;;;110.30;;
16308;SDS011;8263;48.880;9.276;2022-11-20T07:51:20;117.57;;;109.72;;
16308;SDS011;8263;48.880;9.276;2022-11-20T07:53:47;117.25;;;109.43;;
16308;SDS011;8263;48.880;9.276;2022-11-20T07:56:14;118.85;;;110.85;;
16308;SDS011;8263;48.880;9.276;2022-11-20T07:58:40;118.18;;;110.28;;
16308;SDS011;8263;48.880;9.276;2022-11-20T08:01:07;118.65;;;110.72;;
16308;SDS011;8263;48.880;9.276;2022-11-20T08:03:34;118.30;;;110.40;;
16308;SDS011;8263;48.880;9.276;2022-11-20T08:06:04;117.32;;;109.32;;
16308;SDS011;8263;48.880;9.276;2022-11-20T08:08:31;118.40;;;110.45;;
16308;SDS011;8263;48.880;9.276;2022-11-20T08:10:58;116.10;;;108.38;;
16308;SDS011;8263;48.880;9.276;2022-11-20T08:13:45;115.88;;;108.15;;
16308;SDS011;8263;48.880;9.276;2022-11-20T08:16:29;116.68;;;108.82;;
16308;SDS011;8263;48.880;9.276;2022-11-20T08:18:56;117.22;;;109.28;;
16308;SDS011;8263;48.880;9.276;2022-11-20T08:21:23;117.47;;;109.50;;
16308;SDS011;8263;48.880;9.276;2022-11-20T08:23:50;117.22;;;109.40;;
16308;SDS011;8263;48.880;9.276;2022-11-20T08:26:16;118.72;;;110.80;;
16308;SDS011;8263;48.880;9.276;2022-11-20T08:28:43;117.40;;;109.57;;
16308;SDS011;8263;48.880;9.276;2022-11-20T08:31:10;116.20;;;108.43;;
16308;SDS011;8263;48.880;9.276;2022-11-20T08:33:37;117.47;;;109.57;;
16308;SDS011;8263;48.880;9.276;2022-11-20T08:36:04;116.40;;;108.63;;
16308;SDS011;8263;48.880;9.276;2022-11-20T08:38:32;116.28;;;108.55;;
16308;SDS011;8263;48.880;9.276;2022-11-20T08:40:59;116.57;;;108.78;;
16308;SDS011;8263;48.880;9.276;2022-11-20T08:43:43;118.90;;;110.93;;
16308;SDS011;8263;48.880;9.276;2022-11-20T08:46:10;116.68;;;108.90;;
16308;SDS011;8263;48.880;9.276;2022-11-20T08:48:36;117.07;;;109.25;;
16308;SDS011;8263;48.880;9.276;2022-11-20T08:51:04;117.03;;;109.20;;
16308;SDS011;8263;48.880;9.276;2022-11-20T08:53:33;115.88;;;108.18;;
16308;SDS011;8263;48.880;9.276;2022-11-20T08:56:00;116.28;;;108.47;;
16308;SDS011;8263;48.880;9.276;2022-11-20T08:58:26;117.53;;;109.70;;
16308;SDS011;8263;48.880;9.276;2022-11-20T09:00:53;115.88;;;108.18;;
16308;SDS011;8263;48.880;9.276;2022-11-20T09:03:20;118.00;;;110.03;;
16308;SDS011;8263;48.880;9.276;2022-11-20T09:05:46;115.60;;;107.90;;
16308;SDS011;8263;48.880;9.276;2022-11-20T09:08:14;117.05;;;109.15;;
16308;SDS011;8263;48.880;9.276;2022-11-20T09:10:42;116.53;;;108.75;;
16308;SDS011;8263;48.880;9.276;2022-11-20T09:13:09;116.70;;;108.85;;
16308;SDS011;8263;48.880;9.276;2022-11-20T09:15:36;116.28;;;108.55;;
16308;SDS011;8263;48.880;9.276;2022-11-20T09:18:03;115.95;;;108.22;;
16308;SDS011;8263;48.880;9.276;2022-11-20T09:20:30;113.78;;;106.18;;
16308;SDS011;8263;48.880;9.276;2022-11-20T09:22:57;117.85;;;110.00;;
16308;SDS011;8263;48.880;9.276;2022-11-20T09:25:24;117.07;;;109.28;;
16308;SDS011;8263;48.880;9.276;2022-11-20T09:27:55;117.43;;;109.63;;
16308;SDS011;8263;48.880;9.276;2022-11-20T09:30:22;117.00;;;109.20;;
16308;SDS011;8263;48.880;9.276;2022-11-20T09:32:48;115.80;;;108.10;;
16308;SDS011;8263;48.880;9.276;2022-11-20T09:35:15;116.72;;;108.95;;
16308;SDS011;8263;48.880;9.276;2022-11-20T09:37:42;117.57;;;109.72;;
16308;SDS011;8263;48.880;9.276;2022-11-20T09:40:10;115.50;;;107.82;;
16308;SDS011;8263;48.880;9.276;2022-11-20T09:42:44;117.88;;;109.97;;
16308;SDS011;8263;48.880;9.276;2022-11-20T09:47:58;117.13;;;109.30;;
16308;SDS011;8263;48.880;9.276;2022-11-20T09:50:29;116.93;;;109.13;;
16308;SDS011;8263;48.880;9.276;2022-11-20T09:53:00;114.65;;;107.05;;
16308;SDS011;8263;48.880;9.276;2022-11-20T09:55:28;115.28;;;107.63;;
16308;SDS011;8263;48.880;9.276;2022-11-20T09:57:55;117.35;;;109.53;;
16308;SDS011;8263;48.880;9.276;2022-11-20T10:00:23;116.13;;;108.32;;
16308;SDS011;8263;48.880;9.276;2022-11-20T10:02:51;117.00;;;109.13;;
16308;SDS011;8263;48.880;9.276;2022-11-20T10:05:21;116.63;;;108.88;;
16308;SDS011;8263;48.880;9.276;2022-11-20T10:07:51;114.70;;;107.00;;
16308;SDS011;8263;48.880;9.276;2022-11-20T10:10:21;114.68;;;107.07;;
16308;SDS011;8263;48.880;9.276;2022-11-20T10:12:56;116.53;;;108.78;;
16308;SDS011;8263;48.880;9.276;2022-11-20T10:15:29;114.85;;;107.25;;
16308;SDS011;8263;48.880;9.276;2022-11-20T10:18:02;114.60;;;107.00;;
16308;SDS011;8263;48.880;9.276;2022-11-20T10:20:32;112.25;;;104.82;;
16308;SDS011;8263;48.880;9.276;2022-11-20T10:23:10;116.75;;;108.95;;
16308;SDS011;8263;48.880;9.276;2022-11-20T10:25:43;117.60;;;109.75;;
16308;SDS011;8263;48.880;9.276;2022-11-20T10:28:22;118.60;;;110.60;;
16308;SDS011;8263;48.880;9.276;2022-11-20T10:30:55;117.60;;;109.60;;
16308;SDS011;8263;48.880;9.276;2022-11-20T10:33:23;118.15;;;110.25;;
16308;SDS011;8263;48.880;9.276;2022-11-20T10:35:52;117.60;;;109.72;;
16308;SDS011;8263;48.880;9.276;2022-11-20T10:38:21;115.78;;;108.07;;
16308;SDS011;8263;48.880;9.276;2022-11-20T10:40:51;115.78;;;107.93;;
16308;SDS011;8263;48.880;9.276;2022-11-20T10:43:19;115.57;;;107.90;;
16308;SDS011;8263;48.880;9.276;2022-11-20T10:45:49;114.53;;;106.90;;
16308;SDS011;8263;48.880;9.276;2022-11-20T10:48:19;115.65;;;107.82;;
16308;SDS011;8263;48.880;9.276;2022-11-20T10:50:57;113.53;;;106.03;;
16308;SDS011;8263;48.880;9.276;2022-11-20T10:53:31;116.97;;;109.05;;
16308;SDS011;8263;48.880;9.276;2022-11-20T10:56:02;114.50;;;106.93;;
16308;SDS011;8263;48.880;9.276;2022-11-20T10:58:34;115.55;;;107.75;;
16308;SDS011;8263;48.880;9.276;2022-11-20T11:01:04;115.82;;;108.13;;
16308;SDS011;8263;48.880;9.276;2022-11-20T11:06:06;113.60;;;106.10;;
16308;SDS011;8263;48.880;9.276;2022-11-20T11:08:36;115.30;;;107.60;;
16308;SDS011;8263;48.880;9.276;2022-11-20T11:11:09;114.85;;;107.22;;
16308;SDS011;8263;48.880;9.276;2022-11-20T11:13:41;115.85;;;108.15;;
16308;SDS011;8263;48.880;9.276;2022-11-20T11:16:16;115.30;;;107.70;;
16308;SDS011;8263;48.880;9.276;2022-11-20T11:18:46;115.18;;;107.50;;
16308;SDS011;8263;48.880;9.276;2022-11-20T11:34:59;117.97;;;110.07;;
16308;SDS011;8263;48.880;9.276;2022-11-20T11:37:26;113.53;;;105.93;;
16308;SDS011;8263;48.880;9.276;2022-11-20T11:39:53;114.07;;;106.38;;
16308;SDS011;8263;48.880;9.276;2022-11-20T11:42:20;114.93;;;107.22;;
16308;SDS011;8263;48.880;9.276;2022-11-20T11:44:47;115.10;;;107.45;;
16308;SDS011;8263;48.880;9.276;2022-11-20T11:47:31;113.53;;;106.03;;
16308;SDS011;8263;48.880;9.276;2022-11-20T11:50:07;117.88;;;109.97;;
16308;SDS011;8263;48.880;9.276;2022-11-20T11:52:41;114.70;;;107.00;;
16308;SDS011;8263;48.880;9.276;2022-11-20T11:55:26;115.25;;;107.38;;
16308;SDS011;8263;48.880;9.276;2022-11-20T11:57:57;113.18;;;105.57;;
16308;SDS011;8263;48.880;9.276;2022-11-20T12:00:29;114.22;;;106.63;;
16308;SDS011;8263;48.880;9.276;2022-11-20T12:02:57;115.43;;;107.82;;
16308;SDS011;8263;48.880;9.276;2022-11-20T12:05:29;113.53;;;105.82;;
16308;SDS011;8263;48.880;9.276;2022-11-20T12:07:59;112.88;;;105.43;;
16308;SDS011;8263;48.880;9.276;2022-11-20T12:10:33;113.20;;;105.72;;
16308;SDS011;8263;48.880;9.276;2022-11-20T12:13:04;112.72;;;105.30;;
16308;SDS011;8263;48.880;9.276;2022-11-20T12:15:36;112.40;;;104.93;;
16308;SDS011;8263;48.880;9.276;2022-11-20T12:18:07;113.32;;;105.57;;
16308;SDS011;8263;48.880;9.276;2022-11-20T12:20:39;111.72;;;104.32;;
16308;SDS011;8263;48.880;9.276;2022-11-20T12:23:14;113.43;;;105.93;;
16308;SDS011;8263;48.880;9.276;2022-11-20T12:25:43;113.60;;;106.10;;
16308;SDS011;8263;48.880;9.276;2022-11-20T12:28:29;112.30;;;104.90;;
16308;SDS011;8263;48.880;9.276;2022-11-20T12:31:05;113.80;;;106.30;;
16308;SDS011;8263;48.880;9.276;2022-11-20T12:33:56;111.80;;;104.45;;
16308;SDS011;8263;48.880;9.276;2022-11-20T12:36:40;112.28;;;104.88;;
16308;SDS011;8263;48.880;9.276;2022-11-20T12:42:08;111.00;;;103.65;;
16308;SDS011;8263;48.880;9.276;2022-11-20T12:45:04;112.00;;;104.65;;
16308;SDS011;8263;48.880;9.276;2022-11-20T12:47:41;110.50;;;103.20;;
16308;SDS011;8263;48.880;9.276;2022-11-20T12:50:14;110.93;;;103.65;;
16308;SDS011;8263;48.880;9.276;2022-11-20T12:52:45;111.15;;;103.85;;
16308;SDS011;8263;48.880;9.276;2022-11-20T13:00:53;111.20;;;103.90;;
16308;SDS011;8263;48.880;9.276;2022-11-20T13:13:56;106.72;;;99.70;;
16308;SDS011;8263;48.880;9.276;2022-11-20T13:16:30;110.95;;;103.30;;
16308;SDS011;8263;48.880;9.276;2022-11-20T13:19:01;108.03;;;100.97;;
16308;SDS011;8263;48.880;9.276;2022-11-20T13:21:35;109.30;;;102.20;;
16308;SDS011;8263;48.880;9.276;2022-11-20T13:29:18;106.80;;;99.80;;
16308;SDS011;8263;48.880;9.276;2022-11-20T13:31:46;107.07;;;100.10;;
16308;SDS011;8263;48.880;9.276;2022-11-20T13:36:48;107.80;;;100.78;;
16308;SDS011;8263;48.880;9.276;2022-11-20T13:39:23;108.45;;;101.38;;
16308;SDS011;8263;48.880;9.276;2022-11-20T13:41:53;110.25;;;102.88;;
16308;SDS011;8263;48.880;9.276;2022-11-20T13:44:23;108.05;;;101.00;;
16308;SDS011;8263;48.880;9.276;2022-11-20T13:46:51;108.43;;;101.32;;
16308;SDS011;8263;48.880;9.276;2022-11-20T13:49:20;107.03;;;100.00;;
16308;SDS011;8263;48.880;9.276;2022-11-20T13:51:49;107.45;;;100.45;;
16308;SDS011;8263;48.880;9.276;2022-11-20T13:57:00;107.80;;;100.80;;
16308;SDS011;8263;48.880;9.276;2022-11-20T14:02:18;109.22;;;102.05;;
16308;SDS011;8263;48.880;9.276;2022-11-20T14:04:47;106.97;;;99.97;;
16308;SDS011;8263;48.880;9.276;2022-11-20T14:07:14;107.90;;;100.80;;
16308;SDS011;8263;48.880;9.276;2022-11-20T14:09:49;109.80;;;102.55;;
16308;SDS011;8263;48.880;9.276;2022-11-20T14:12:16;109.28;;;102.15;;
16308;SDS011;8263;48.880;9.276;2022-11-20T14:14:47;105.90;;;99.00;;
16308;SDS011;8263;48.880;9.276;2022-11-20T14:17:18;108.03;;;100.97;;
16308;SDS011;8263;48.880;9.276;2022-11-20T14:19:46;110.43;;;103.22;;
16308;SDS011;8263;48.880;9.276;2022-11-20T14:22:17;110.20;;;102.97;;
16308;SDS011;8263;48.880;9.276;2022-11-20T14:24:47;109.65;;;102.47;;
16308;SDS011;8263;48.880;9.276;2022-11-20T14:27:15;105.47;;;98.60;;
16308;SDS011;8263;48.880;9.276;2022-11-20T14:29:43;107.75;;;100.75;;
16308;SDS011;8263;48.880;9.276;2022-11-20T14:32:10;109.88;;;102.68;;
16308;SDS011;8263;48.880;9.276;2022-11-20T14:34:39;106.35;;;99.40;;
16308;SDS011;8263;48.880;9.276;2022-11-20T14:37:10;108.25;;;101.15;;
16308;SDS011;8263;48.880;9.276;2022-11-20T14:39:39;108.00;;;100.95;;
16308;SDS011;8263;48.880;9.276;2022-11-20T14:42:13;109.10;;;102.00;;
16308;SDS011;8263;48.880;9.276;2022-11-20T14:44:41;108.38;;;101.28;;
16308;SDS011;8263;48.880;9.276;2022-11-20T14:47:08;107.30;;;100.30;;
16308;SDS011;8263;48.880;9.276;2022-11-20T14:49:36;108.30;;;101.20;;
16308;SDS011;8263;48.880;9.276;2022-11-20T14:52:11;107.97;;;100.90;;
16308;SDS011;8263;48.880;9.276;2022-11-20T14:54:42;107.22;;;100.10;;
16308;SDS011;8263;48.880;9.276;2022-11-20T14:57:18;108.07;;;100.97;;
16308;SDS011;8263;48.880;9.276;2022-11-20T14:59:46;108.80;;;101.70;;
16308;SDS011;8263;48.880;9.276;2022-11-20T15:02:12;108.28;;;101.18;;
16308;SDS011;8263;48.880;9.276;2022-11-20T15:04:44;109.80;;;102.60;;
16308;SDS011;8263;48.880;9.276;2022-11-20T15:07:22;109.50;;;102.28;;
16308;SDS011;8263;48.880;9.276;2022-11-20T15:09:58;109.57;;;102.38;;